Kansas, Oklahoma
Current Conditions -  °F | °C
As of 11:35 AM on Wednesday 26 Nov 2014 (Local Time) from KSLG Reporting Station
Clear Clear  
Wind Chill: 42°   Ceiling: Unl
Heat Index: 48°   Visibility: 10mi
Dew Point: 30°   Wind: 16mph
Humidity: 50%   Direction: 320°NW
Pressure: 30.08"   Gusts: NA
Location:  36.21°N, 94.8°W
Report Text: KSLG 261735Z AUTO 32014KT 270V330 10SM CLR 09/M01 A3008 RMK AO1
Loading
Personal Weather Stations






























Interactive Weather Map New forecast layout! Learn more

10-Day Weather Forecast

Advertisements
Track Severe Weather on mobile